Time;durP1;ratioP1;P1;durP2;ratioP2;P2;SDS_P1;SDS_P2;PMS_P1;PMS_P2;Temp;Humidity;BMP_temperature;BMP_pressure;BME280_temperature;BME280_humidity;BME280_pressure;Samples;Min_cycle;Max_cycle;Signal;HPM_P1;HPM_P2
2023/07/15 00:00:53;;;;;;;;;;;;;;;23.26;49.13;99256.34;1087176;54;19973;-83
2023/07/15 00:01:56;;;;;;;;;;;;;;;23.30;49.13;99262.13;1086914;47;19942;-84
2023/07/15 00:02:57;;;;;;;;;;;;;;;23.36;48.97;99264.69;1086962;47;19943;-84
2023/07/15 00:04:00;;;;;;;;;;;;;;;23.40;48.95;99262.31;1086976;47;19942;-85
2023/07/15 00:05:01;;;;;;;;;;;;;;;23.43;48.73;99261.78;1086865;54;19942;-84
2023/07/15 00:06:02;;;;;;;;;;;;;;;23.40;48.85;99265.03;1086912;47;19939;-83
2023/07/15 00:07:05;;;;;;;;;;;;;;;23.38;48.73;99256.25;1086886;54;19943;-82
2023/07/15 00:08:06;;;;;;;;;;;;;;;23.44;48.64;99259.91;1087138;54;19949;-84
2023/07/15 00:09:10;;;;;;;;;;;;;;;23.46;48.71;99253.13;1087225;54;19943;-85
2023/07/15 00:10:10;;;;;;;;;;;;;;;23.50;48.83;99259.72;1087120;54;19950;-85
2023/07/15 00:11:16;;;;;;;;;;;;;;;23.52;48.46;99260.28;1087187;54;19954;-83
2023/07/15 00:12:17;;;;;;;;;;;;;;;23.56;48.26;99259.81;1086908;47;19981;-82
2023/07/15 00:13:21;;;;;;;;;;;;;;;23.57;48.13;99262.25;1087016;54;20814;-84
2023/07/15 00:14:23;;;;;;;;;;;;;;;23.59;48.10;99262.03;1086819;54;19938;-82
2023/07/15 00:15:29;;;;;;;;;;;;;;;23.61;48.31;99263.44;1086878;54;19942;-83
2023/07/15 00:16:30;;;;;;;;;;;;;;;23.62;48.15;99261.50;1087198;54;19942;-82
2023/07/15 00:17:33;;;;;;;;;;;;;;;23.62;48.07;99262.34;1087166;54;19958;-83
2023/07/15 00:18:34;;;;;;;;;;;;;;;23.62;48.01;99266.97;1087159;54;19967;-83
2023/07/15 00:19:39;;;;;;;;;;;;;;;23.62;48.63;99259.63;1087169;54;19942;-82
2023/07/15 00:20:40;;;;;;;;;;;;;;;23.61;48.47;99268.06;1086830;47;19975;-84
2023/07/15 00:21:43;;;;;;;;;;;;;;;23.59;48.43;99265.56;1086964;54;19967;-81
2023/07/15 00:22:45;;;;;;;;;;;;;;;23.62;48.07;99265.09;1086908;47;19942;-83
2023/07/15 00:23:46;;;;;;;;;;;;;;;23.62;48.50;99269.69;1086925;54;19954;-84
2023/07/15 00:24:49;;;;;;;;;;;;;;;23.62;48.53;99275.16;1087122;54;19943;-85
2023/07/15 00:25:51;;;;;;;;;;;;;;;23.51;48.90;99272.31;1086870;47;19974;-82
2023/07/15 00:26:54;;;;;;;;;;;;;;;23.54;48.50;99270.97;1086772;47;19973;-82
2023/07/15 00:27:55;;;;;;;;;;;;;;;23.52;48.68;99270.38;1086892;54;19949;-84
2023/07/15 00:28:56;;;;;;;;;;;;;;;23.47;49.51;99267.59;1087205;54;19994;-83
2023/07/15 00:29:59;;;;;;;;;;;;;;;23.44;48.84;99274.34;1086834;47;20681;-82
2023/07/15 00:31:10;;;;;;;;;;;;;;;23.39;49.04;99277.00;1086942;47;19958;-82
2023/07/15 00:32:19;;;;;;;;;;;;;;;23.43;49.05;99271.88;1086935;54;19950;-82
2023/07/15 00:33:22;;;;;;;;;;;;;;;23.39;49.22;99268.81;1086884;47;19950;-86
2023/07/15 00:34:26;;;;;;;;;;;;;;;23.46;48.62;99269.47;1086857;47;19943;-84
2023/07/15 00:35:28;;;;;;;;;;;;;;;23.44;49.47;99263.44;1086925;47;20012;-83
2023/07/15 00:36:30;;;;;;;;;;;;;;;23.44;49.09;99268.88;1086935;47;21009;-85
2023/07/15 00:37:34;;;;;;;;;;;;;;;23.41;49.24;99272.13;1086829;47;20786;-84
2023/07/15 00:38:35;;;;;;;;;;;;;;;23.37;49.46;99268.25;1086858;54;19943;-84
2023/07/15 00:39:40;;;;;;;;;;;;;;;23.34;49.50;99274.19;1086865;47;19994;-83
2023/07/15 00:40:42;;;;;;;;;;;;;;;23.36;49.86;99274.75;1086873;47;19942;-85
2023/07/15 00:41:46;;;;;;;;;;;;;;;23.36;49.67;99269.31;1086913;54;19998;-84
2023/07/15 00:43:02;;;;;;;;;;;;;;;23.38;49.41;99269.91;1087149;54;19949;-82
2023/07/15 00:44:14;;;;;;;;;;;;;;;23.36;49.46;99272.88;1086862;54;19942;-85
2023/07/15 00:45:15;;;;;;;;;;;;;;;23.38;49.53;99275.34;1086781;47;19994;-82
2023/07/15 00:46:28;;;;;;;;;;;;;;;23.32;49.94;99268.97;1086875;54;19958;-85
2023/07/15 00:47:35;;;;;;;;;;;;;;;23.31;50.30;99270.06;1086884;47;19950;-84
2023/07/15 00:48:38;;;;;;;;;;;;;;;23.21;51.08;99270.72;1086997;54;19982;-85
2023/07/15 00:49:39;;;;;;;;;;;;;;;23.21;50.38;99264.44;1086740;47;19946;-82
2023/07/15 00:50:43;;;;;;;;;;;;;;;23.18;50.57;99265.75;1086865;47;19949;-82
2023/07/15 00:51:46;;;;;;;;;;;;;;;23.11;50.85;99265.06;1087003;54;19942;-81
2023/07/15 00:52:49;;;;;;;;;;;;;;;23.15;50.17;99266.22;1086938;47;19943;-83
2023/07/15 00:53:51;;;;;;;;;;;;;;;23.14;50.82;99263.75;1086975;47;20006;-84
2023/07/15 00:54:56;;;;;;;;;;;;;;;23.13;50.10;99262.94;1086823;54;19966;-83
2023/07/15 00:55:58;;;;;;;;;;;;;;;23.14;49.94;99264.59;1086870;47;19943;-84
2023/07/15 00:57:00;;;;;;;;;;;;;;;23.15;49.96;99268.94;1086881;47;19943;-82
2023/07/15 00:58:03;;;;;;;;;;;;;;;23.10;50.10;99265.31;1086874;47;19943;-83
2023/07/15 00:59:05;;;;;;;;;;;;;;;22.99;50.39;99270.59;1086904;54;20970;-83
2023/07/15 01:00:10;;;;;;;;;;;;;;;22.99;50.54;99267.03;1086821;47;19943;-83
2023/07/15 01:01:11;;;;;;;;;;;;;;;22.94;50.54;99267.75;1086804;54;19942;-84
2023/07/15 01:02:18;;;;;;;;;;;;;;;22.92;50.89;99271.81;1086837;47;19943;-83
2023/07/15 01:03:19;;;;;;;;;;;;;;;22.89;51.07;99276.69;1086893;54;19943;-83
2023/07/15 01:04:20;;;;;;;;;;;;;;;22.89;51.29;99273.94;1086843;47;19939;-84
2023/07/15 01:05:24;;;;;;;;;;;;;;;22.84;51.40;99273.88;1086860;54;19943;-83
2023/07/15 01:06:25;;;;;;;;;;;;;;;22.91;50.95;99276.41;1086806;47;19973;-82
2023/07/15 01:07:28;;;;;;;;;;;;;;;22.85;51.10;99272.81;1086808;47;20009;-83
2023/07/15 01:08:29;;;;;;;;;;;;;;;22.88;51.33;99277.75;1088335;39;20554;-84
2023/07/15 01:09:33;;;;;;;;;;;;;;;22.87;51.46;99281.53;1086835;54;19942;-84
2023/07/15 01:10:34;;;;;;;;;;;;;;;22.80;51.43;99275.41;1087204;54;19955;-86
2023/07/15 01:11:39;;;;;;;;;;;;;;;22.84;51.82;99275.75;1086846;47;19946;-85
2023/07/15 01:12:40;;;;;;;;;;;;;;;22.84;51.64;99276.59;1086927;54;20635;-84
2023/07/15 01:13:40;;;;;;;;;;;;;;;22.82;51.57;99273.28;1087157;54;19942;-83
2023/07/15 01:14:44;;;;;;;;;;;;;;;22.84;51.62;99284.78;1086988;54;19943;-84
2023/07/15 01:15:46;;;;;;;;;;;;;;;22.84;51.79;99271.16;1086748;47;20067;-83
2023/07/15 01:16:50;;;;;;;;;;;;;;;22.85;51.98;99271.97;1086735;47;19998;-85
2023/07/15 01:17:53;;;;;;;;;;;;;;;22.85;52.27;99267.34;1086763;47;19943;-83
2023/07/15 01:18:54;;;;;;;;;;;;;;;22.88;51.43;99269.56;1087386;39;20712;-83
2023/07/15 01:19:57;;;;;;;;;;;;;;;22.90;51.43;99275.59;1087118;47;19977;-85
2023/07/15 01:20:59;;;;;;;;;;;;;;;22.97;51.26;99274.63;1087158;47;19943;-83
2023/07/15 01:22:05;;;;;;;;;;;;;;;22.98;51.63;99270.81;1087115;47;20011;-84
2023/07/15 01:23:08;;;;;;;;;;;;;;;22.95;52.72;99271.34;1087162;47;19950;-84
2023/07/15 01:24:09;;;;;;;;;;;;;;;22.87;52.68;99273.38;1087104;47;19955;-82
2023/07/15 01:25:12;;;;;;;;;;;;;;;22.87;52.95;99273.38;1087014;54;19958;-83
2023/07/15 01:26:13;;;;;;;;;;;;;;;22.92;52.39;99280.00;1087261;54;20021;-84
2023/07/15 01:27:14;;;;;;;;;;;;;;;22.85;53.12;99271.97;1087029;54;19950;-83
2023/07/15 01:28:18;;;;;;;;;;;;;;;22.86;52.78;99274.44;1087212;47;19942;-83
2023/07/15 01:29:18;;;;;;;;;;;;;;;22.79;54.21;99273.75;1088422;39;20032;-82
2023/07/15 01:30:22;;;;;;;;;;;;;;;22.78;54.01;99272.09;1087520;39;20670;-85
2023/07/15 01:31:24;;;;;;;;;;;;;;;22.82;53.12;99276.00;1087178;47;19965;-83
2023/07/15 01:32:27;;;;;;;;;;;;;;;22.83;53.06;99274.94;1087207;47;19939;-82
2023/07/15 01:33:29;;;;;;;;;;;;;;;22.85;52.73;99278.25;1087172;47;19943;-83
2023/07/15 01:34:33;;;;;;;;;;;;;;;22.82;52.76;99276.00;1087113;47;19942;-81
2023/07/15 01:35:34;;;;;;;;;;;;;;;22.82;52.88;99273.28;1087148;47;19939;-82
2023/07/15 01:36:37;;;;;;;;;;;;;;;22.83;52.99;99277.66;1087190;54;19943;-83
2023/07/15 01:37:39;;;;;;;;;;;;;;;22.82;52.95;99281.47;1087227;54;19949;-83
2023/07/15 01:38:45;;;;;;;;;;;;;;;22.83;53.08;99272.22;1087623;54;20014;-83
2023/07/15 01:39:47;;;;;;;;;;;;;;;22.83;53.11;99274.09;1087099;47;19981;-82
2023/07/15 01:40:50;;;;;;;;;;;;;;;22.81;53.91;99277.06;1087127;47;19994;-82
2023/07/15 01:41:51;;;;;;;;;;;;;;;22.62;54.77;99270.16;1087221;54;19950;-84
2023/07/15 01:42:54;;;;;;;;;;;;;;;22.61;54.65;99272.09;1087361;54;19974;-83
2023/07/15 01:43:55;;;;;;;;;;;;;;;22.63;54.62;99269.09;1087153;47;20018;-84
2023/07/15 01:44:58;;;;;;;;;;;;;;;22.53;55.38;99267.03;1088007;47;20002;-83
2023/07/15 01:45:59;;;;;;;;;;;;;;;22.54;54.44;99274.09;1088058;39;20848;-84
2023/07/15 01:47:03;;;;;;;;;;;;;;;22.52;55.06;99268.09;1087365;47;20029;-83
2023/07/15 01:48:04;;;;;;;;;;;;;;;22.44;55.27;99266.56;1087249;47;19973;-82
2023/07/15 01:49:08;;;;;;;;;;;;;;;22.51;54.31;99271.88;1087157;54;19943;-83
2023/07/15 01:50:09;;;;;;;;;;;;;;;22.52;54.74;99273.53;1087429;54;19954;-83
2023/07/15 01:51:10;;;;;;;;;;;;;;;22.52;54.57;99277.06;1087104;46;19939;-84
2023/07/15 01:52:13;;;;;;;;;;;;;;;22.46;55.12;99264.44;1087141;47;19942;-84
2023/07/15 01:53:15;;;;;;;;;;;;;;;22.44;55.59;99272.03;1087147;47;19982;-83
2023/07/15 01:54:21;;;;;;;;;;;;;;;22.47;55.35;99270.69;1087086;47;19964;-84
2023/07/15 01:55:25;;;;;;;;;;;;;;;22.50;55.01;99270.22;1087100;47;19966;-84
2023/07/15 01:56:26;;;;;;;;;;;;;;;22.51;54.77;99271.88;1087136;47;19943;-84
2023/07/15 01:57:30;;;;;;;;;;;;;;;22.53;54.20;99273.28;1087158;51;20309;-84
2023/07/15 01:58:33;;;;;;;;;;;;;;;22.51;55.22;99261.81;1087215;47;19942;-84
2023/07/15 01:59:36;;;;;;;;;;;;;;;22.39;55.59;99269.16;1087127;47;19943;-82
2023/07/15 02:00:37;;;;;;;;;;;;;;;22.42;55.07;99263.25;1087137;46;20018;-84
2023/07/15 02:01:42;;;;;;;;;;;;;;;22.43;54.86;99270.38;1087086;47;19942;-83
2023/07/15 02:02:43;;;;;;;;;;;;;;;22.43;55.06;99268.44;1087056;47;20720;-83
2023/07/15 02:03:44;;;;;;;;;;;;;;;22.35;55.67;99268.00;1087105;47;19943;-83
2023/07/15 02:04:47;;;;;;;;;;;;;;;22.35;55.22;99270.72;1087034;47;19942;-83
2023/07/15 02:05:48;;;;;;;;;;;;;;;22.28;55.47;99271.69;1087171;47;19969;-82
2023/07/15 02:06:51;;;;;;;;;;;;;;;22.33;55.01;99273.69;1087106;47;19966;-84
2023/07/15 02:07:52;;;;;;;;;;;;;;;22.36;54.87;99269.66;1087143;54;19949;-81
2023/07/15 02:08:57;;;;;;;;;;;;;;;22.37;54.49;99260.41;1088888;39;20233;-84
2023/07/15 02:10:01;;;;;;;;;;;;;;;22.32;55.31;99265.75;1087124;47;19943;-81
2023/07/15 02:11:05;;;;;;;;;;;;;;;22.34;54.70;99266.34;1087041;47;20757;-83
2023/07/15 02:12:06;;;;;;;;;;;;;;;22.28;55.34;99260.81;1086950;54;19942;-83
2023/07/15 02:13:11;;;;;;;;;;;;;;;22.25;55.39;99263.16;1086070;47;19946;-82
2023/07/15 02:14:11;;;;;;;;;;;;;;;22.18;55.79;99265.19;1085031;46;19951;-83
2023/07/15 02:15:15;;;;;;;;;;;;;;;22.17;55.72;99258.94;1085148;46;19950;-85
2023/07/15 02:16:16;;;;;;;;;;;;;;;22.20;55.54;99263.06;1085187;47;19981;-85
2023/07/15 02:17:22;;;;;;;;;;;;;;;22.19;55.25;99259.53;1085185;54;19954;-87
2023/07/15 02:18:25;;;;;;;;;;;;;;;22.18;55.42;99255.16;1086188;47;20551;-86
2023/07/15 02:19:30;;;;;;;;;;;;;;;22.21;54.79;99262.81;1086710;39;20759;-86
2023/07/15 02:20:32;;;;;;;;;;;;;;;22.15;55.50;99261.06;1086192;47;20006;-86
2023/07/15 02:21:36;;;;;;;;;;;;;;;22.15;55.17;99252.91;1086397;54;19942;-84
2023/07/15 02:22:37;;;;;;;;;;;;;;;22.14;55.31;99256.69;1086180;47;19966;-84
2023/07/15 02:23:40;;;;;;;;;;;;;;;22.09;55.62;99248.44;1086301;47;20892;-84
2023/07/15 02:24:41;;;;;;;;;;;;;;;22.08;55.98;99249.50;1084402;47;19951;-80
2023/07/15 02:25:47;;;;;;;;;;;;;;;22.07;55.55;99253.28;1084017;54;19969;-81
2023/07/15 02:26:48;;;;;;;;;;;;;;;22.01;56.26;99246.09;1084329;54;19951;-83
2023/07/15 02:27:52;;;;;;;;;;;;;;;21.94;56.46;99249.75;1083986;54;19951;-86
2023/07/15 02:28:53;;;;;;;;;;;;;;;21.85;56.93;99248.44;1085889;46;19970;-86
2023/07/15 02:29:53;;;;;;;;;;;;;;;21.82;56.90;99246.22;1086222;54;19946;-87
2023/07/15 02:30:57;;;;;;;;;;;;;;;21.77;56.74;99240.66;1086187;54;19951;-85
2023/07/15 02:31:57;;;;;;;;;;;;;;;21.68;56.62;99242.09;1086294;47;19947;-85
2023/07/15 02:33:01;;;;;;;;;;;;;;;21.64;56.49;99241.75;1086949;39;20564;-84
2023/07/15 02:34:02;;;;;;;;;;;;;;;21.62;56.35;99236.53;1086238;54;19942;-82
2023/07/15 02:35:03;;;;;;;;;;;;;;;21.62;56.26;99235.69;1085236;54;19946;-82
2023/07/15 02:36:07;;;;;;;;;;;;;;;21.66;55.93;99229.56;1086238;54;19995;-83
2023/07/15 02:37:08;;;;;;;;;;;;;;;21.65;56.44;99233.34;1088866;39;20595;-85
2023/07/15 02:38:13;;;;;;;;;;;;;;;21.63;56.25;99230.00;1086869;47;19942;-83
2023/07/15 02:39:14;;;;;;;;;;;;;;;21.59;56.17;99233.44;1086584;54;19949;-84
2023/07/15 02:40:17;;;;;;;;;;;;;;;21.57;56.10;99230.94;1088102;39;20233;-83
2023/07/15 02:41:21;;;;;;;;;;;;;;;21.59;55.97;99233.44;1086741;46;19943;-83
2023/07/15 02:42:24;;;;;;;;;;;;;;;21.59;56.06;99230.72;1086523;46;19951;-83
2023/07/15 02:43:25;;;;;;;;;;;;;;;21.62;55.91;99238.41;1086838;54;20037;-82
2023/07/15 02:44:28;;;;;;;;;;;;;;;21.68;55.43;99233.94;1086758;46;19939;-85
2023/07/15 02:45:29;;;;;;;;;;;;;;;21.72;55.36;99229.69;1086621;47;19951;-83
2023/07/15 02:46:33;;;;;;;;;;;;;;;21.76;55.47;99244.44;1087209;54;19980;-82
2023/07/15 02:47:34;;;;;;;;;;;;;;;21.77;55.05;99235.22;1087220;54;19950;-84
2023/07/15 02:48:37;;;;;;;;;;;;;;;21.76;55.24;99241.72;1087187;47;19966;-84
2023/07/15 02:49:38;;;;;;;;;;;;;;;21.79;55.30;99233.91;1086757;47;20015;-83
2023/07/15 02:50:41;;;;;;;;;;;;;;;21.78;54.95;99226.00;1086509;54;19958;-84
2023/07/15 02:51:42;;;;;;;;;;;;;;;21.77;55.61;99229.78;1085443;47;19950;-83
2023/07/15 02:52:45;;;;;;;;;;;;;;;21.77;55.56;99224.34;1085452;54;20677;-83
2023/07/15 02:53:47;;;;;;;;;;;;;;;21.79;55.74;99222.22;1084340;47;19977;-81
2023/07/15 02:54:51;;;;;;;;;;;;;;;21.69;56.53;99228.25;1084977;39;20712;-82
2023/07/15 02:55:51;;;;;;;;;;;;;;;21.63;57.48;99232.72;1084749;47;19947;-82
2023/07/15 02:56:57;;;;;;;;;;;;;;;21.56;57.29;99223.84;1085153;47;19946;-83
2023/07/15 02:57:58;;;;;;;;;;;;;;;21.46;58.08;99229.03;1086420;54;19957;-82
2023/07/15 02:59:02;;;;;;;;;;;;;;;21.48;57.41;99229.66;1085757;47;20698;-82
2023/07/15 03:00:10;;;;;;;;;;;;;;;21.39;58.64;99222.91;1085802;47;19977;-83
2023/07/15 03:01:15;;;;;;;;;;;;;;;21.31;58.47;99243.94;1085939;54;19950;-84
2023/07/15 03:02:16;;;;;;;;;;;;;;;21.31;58.63;99229.50;1085530;54;19975;-83
2023/07/15 03:03:20;;;;;;;;;;;;;;;21.32;58.23;99240.16;1087358;39;20482;-85
2023/07/15 03:04:21;;;;;;;;;;;;;;;21.26;58.73;99241.09;1085614;54;19963;-82
2023/07/15 03:05:24;;;;;;;;;;;;;;;21.18;59.29;99238.72;1085675;54;20524;-82
2023/07/15 03:06:25;;;;;;;;;;;;;;;21.21;59.19;99242.88;1085363;47;19950;-82
2023/07/15 03:07:28;;;;;;;;;;;;;;;21.16;58.69;99249.03;1085597;54;19946;-84
2023/07/15 03:08:29;;;;;;;;;;;;;;;21.17;58.64;99242.50;1086173;54;19974;-84
2023/07/15 03:09:33;;;;;;;;;;;;;;;21.19;58.90;99245.81;1085672;54;19974;-82
2023/07/15 03:10:34;;;;;;;;;;;;;;;21.20;58.32;99252.91;1086846;39;20740;-84
2023/07/15 03:11:38;;;;;;;;;;;;;;;21.23;58.25;99247.00;1086209;54;19946;-83
2023/07/15 03:12:42;;;;;;;;;;;;;;;21.21;58.37;99249.13;1085568;47;20575;-82
2023/07/15 03:13:46;;;;;;;;;;;;;;;21.17;58.04;99245.22;1084893;47;19947;-81
2023/07/15 03:14:47;;;;;;;;;;;;;;;21.17;58.00;99248.78;1085112;54;19947;-81
2023/07/15 03:15:50;;;;;;;;;;;;;;;21.12;58.42;99250.53;1085373;54;19954;-82
2023/07/15 03:16:52;;;;;;;;;;;;;;;21.12;58.70;99251.34;1084552;47;19970;-81
2023/07/15 03:17:56;;;;;;;;;;;;;;;21.03;59.03;99245.44;1084504;54;20580;-82
2023/07/15 03:18:57;;;;;;;;;;;;;;;20.99;58.93;99240.72;1084380;47;19954;-81
2023/07/15 03:20:00;;;;;;;;;;;;;;;21.04;58.44;99249.81;1084599;54;19973;-83
2023/07/15 03:21:01;;;;;;;;;;;;;;;21.07;58.49;99251.25;1085105;54;19947;-83
2023/07/15 03:22:05;;;;;;;;;;;;;;;21.12;58.02;99245.91;1085054;54;19945;-80
2023/07/15 03:23:06;;;;;;;;;;;;;;;21.16;58.36;99251.75;1083915;47;19953;-81
2023/07/15 03:24:08;;;;;;;;;;;;;;;21.17;58.16;99247.94;1083801;54;19950;-81
2023/07/15 03:25:12;;;;;;;;;;;;;;;21.18;58.04;99249.59;1083844;47;19951;-81
2023/07/15 03:26:13;;;;;;;;;;;;;;;21.19;58.04;99246.66;1084558;54;19946;-81
2023/07/15 03:27:16;;;;;;;;;;;;;;;21.20;58.33;99250.19;1084083;54;20070;-82
2023/07/15 03:28:19;;;;;;;;;;;;;;;21.19;58.67;99245.81;1084362;54;20091;-81
2023/07/15 03:29:24;;;;;;;;;;;;;;;21.16;58.75;99251.75;1084247;54;19970;-82
2023/07/15 03:30:24;;;;;;;;;;;;;;;21.15;58.87;99250.06;1084381;46;19953;-82
2023/07/15 03:31:25;;;;;;;;;;;;;;;21.10;59.11;99241.78;1085408;54;20022;-85
2023/07/15 03:32:29;;;;;;;;;;;;;;;21.03;59.03;99241.88;1086623;54;19943;-82
2023/07/15 03:33:29;;;;;;;;;;;;;;;20.94;58.69;99243.28;1086128;54;19943;-83
2023/07/15 03:34:33;;;;;;;;;;;;;;;20.92;58.67;99248.13;1086429;47;19939;-85
2023/07/15 03:35:34;;;;;;;;;;;;;;;20.90;58.74;99244.81;1086345;46;19969;-84
2023/07/15 03:36:37;;;;;;;;;;;;;;;20.86;59.05;99247.19;1086298;47;19950;-83
2023/07/15 03:37:40;;;;;;;;;;;;;;;20.88;58.99;99250.47;1086819;47;19946;-84
2023/07/15 03:38:43;;;;;;;;;;;;;;;20.91;58.92;99249.19;1086897;54;19950;-84
2023/07/15 03:39:44;;;;;;;;;;;;;;;20.95;59.21;99248.50;1086473;46;19939;-83
2023/07/15 03:40:51;;;;;;;;;;;;;;;20.96;58.95;99254.75;1086547;54;20439;-83
2023/07/15 03:41:52;;;;;;;;;;;;;;;20.96;59.09;99244.72;1086528;39;20537;-82
2023/07/15 03:42:56;;;;;;;;;;;;;;;21.01;58.59;99246.75;1086428;47;19962;-85
2023/07/15 03:43:59;;;;;;;;;;;;;;;21.00;58.72;99248.63;1088519;39;20563;-85
2023/07/15 03:45:03;;;;;;;;;;;;;;;21.03;58.47;99248.16;1086430;54;19958;-83
2023/07/15 03:46:04;;;;;;;;;;;;;;;21.01;59.21;99250.28;1086310;54;19962;-84
2023/07/15 03:47:05;;;;;;;;;;;;;;;20.99;58.89;99255.09;1086126;47;21003;-84
2023/07/15 03:48:08;;;;;;;;;;;;;;;20.99;59.06;99246.16;1085951;47;19969;-83
2023/07/15 03:49:09;;;;;;;;;;;;;;;20.92;59.40;99246.25;1086613;46;20393;-84
2023/07/15 03:50:12;;;;;;;;;;;;;;;20.86;59.56;99244.47;1086325;47;19974;-83
2023/07/15 03:51:13;;;;;;;;;;;;;;;20.78;59.41;99251.03;1086383;54;19996;-82
2023/07/15 03:52:17;;;;;;;;;;;;;;;20.74;59.23;99252.56;1085872;47;19946;-81
2023/07/15 03:53:19;;;;;;;;;;;;;;;20.63;60.17;99251.44;1085589;47;19996;-82
2023/07/15 03:54:22;;;;;;;;;;;;;;;20.54;60.78;99250.09;1085418;54;19957;-83
2023/07/15 03:55:23;;;;;;;;;;;;;;;20.52;60.14;99250.34;1085626;47;19946;-82
2023/07/15 03:56:26;;;;;;;;;;;;;;;20.54;60.26;99250.09;1085662;54;19985;-83
2023/07/15 03:57:38;;;;;;;;;;;;;;;20.61;60.31;99255.44;1085180;54;19969;-82
2023/07/15 03:58:42;;;;;;;;;;;;;;;20.59;60.33;99252.97;1086073;39;20855;-82
2023/07/15 03:59:45;;;;;;;;;;;;;;;20.56;60.35;99254.22;1085809;54;19939;-81
2023/07/15 04:00:49;;;;;;;;;;;;;;;20.47;60.88;99241.22;1086360;47;19994;-82
2023/07/15 04:02:07;;;;;;;;;;;;;;;20.42;60.75;99252.75;1086638;47;19939;-84
2023/07/15 04:03:10;;;;;;;;;;;;;;;20.46;60.45;99253.94;1086724;54;19943;-81
2023/07/15 04:04:11;;;;;;;;;;;;;;;20.39;60.49;99251.34;1086854;54;19942;-81
2023/07/15 04:05:15;;;;;;;;;;;;;;;20.37;60.77;99256.16;1086731;47;19968;-84
2023/07/15 04:06:15;;;;;;;;;;;;;;;20.27;60.75;99250.44;1086810;54;19990;-83
2023/07/15 04:07:19;;;;;;;;;;;;;;;20.22;60.84;99244.84;1086674;54;19949;-82
2023/07/15 04:08:20;;;;;;;;;;;;;;;20.19;60.87;99248.03;1086688;54;19973;-82
2023/07/15 04:09:23;;;;;;;;;;;;;;;20.14;61.22;99245.16;1086545;47;19988;-82
2023/07/15 04:10:24;;;;;;;;;;;;;;;20.18;60.95;99241.78;1086710;47;19947;-82
2023/07/15 04:11:27;;;;;;;;;;;;;;;20.15;61.24;99241.41;1086859;47;19966;-83
2023/07/15 04:12:28;;;;;;;;;;;;;;;20.12;61.30;99236.47;1086998;47;19943;-83
2023/07/15 04:43:54;;;;;;;;;;;;;;;20.40;61.02;99206.84;1084974;47;19946;-81
2023/07/15 04:45:03;;;;;;;;;;;;;;;20.49;60.74;99199.22;1085260;51;19974;-82
2023/07/15 04:46:07;;;;;;;;;;;;;;;20.56;60.37;99209.97;1085533;54;20002;-81
2023/07/15 04:47:08;;;;;;;;;;;;;;;20.63;60.02;99210.69;1086525;47;19951;-80
2023/07/15 04:48:11;;;;;;;;;;;;;;;20.66;60.36;99212.97;1086636;54;19954;-80
2023/07/15 04:49:12;;;;;;;;;;;;;;;20.71;60.27;99212.28;1087063;39;20160;-80
2023/07/15 04:50:15;;;;;;;;;;;;;;;20.67;60.86;99206.47;1086867;47;19942;-80
2023/07/15 04:51:16;;;;;;;;;;;;;;;20.65;60.75;99208.59;1083479;54;19975;-80
2023/07/15 04:52:20;;;;;;;;;;;;;;;20.73;60.42;99213.72;1083050;39;20284;-80
2023/07/15 04:53:20;;;;;;;;;;;;;;;20.80;60.52;99216.34;1084706;54;19950;-81
2023/07/15 04:54:24;;;;;;;;;;;;;;;20.74;60.60;99209.09;1084770;54;19943;-81
2023/07/15 04:55:24;;;;;;;;;;;;;;;20.78;60.10;99209.50;1084809;47;19974;-82
2023/07/15 04:56:29;;;;;;;;;;;;;;;20.82;60.65;99210.66;1084660;54;19950;-81
2023/07/15 04:57:30;;;;;;;;;;;;;;;20.87;60.27;99216.25;1084199;47;19947;-81
2023/07/15 04:58:36;;;;;;;;;;;;;;;20.84;59.92;99219.41;1084521;54;19968;-81
2023/07/15 04:59:36;;;;;;;;;;;;;;;20.89;59.61;99224.97;1084766;54;20525;-81
2023/07/15 05:00:40;;;;;;;;;;;;;;;20.90;59.73;99217.66;1084696;54;19953;-81
2023/07/15 05:01:40;;;;;;;;;;;;;;;20.93;59.59;99222.59;1083746;47;20061;-81
2023/07/15 05:02:44;;;;;;;;;;;;;;;20.97;59.36;99221.91;1081369;54;20532;-81
2023/07/15 05:03:45;;;;;;;;;;;;;;;21.01;59.32;99230.44;1086032;39;20353;-81
2023/07/15 05:04:46;;;;;;;;;;;;;;;21.02;59.74;99234.78;1083791;47;19947;-79
2023/07/15 05:05:49;;;;;;;;;;;;;;;20.97;59.67;99238.22;1082763;39;20449;-79
2023/07/15 05:06:50;;;;;;;;;;;;;;;20.93;60.32;99226.16;1082692;54;19954;-80
2023/07/15 05:07:54;;;;;;;;;;;;;;;20.98;59.94;99233.63;1083304;54;20054;-80
2023/07/15 05:08:55;;;;;;;;;;;;;;;21.07;59.55;99237.66;1083071;54;19958;-79
2023/07/15 05:09:56;;;;;;;;;;;;;;;21.08;59.89;99235.75;1083236;39;20916;-80
2023/07/15 05:11:00;;;;;;;;;;;;;;;21.09;59.87;99237.41;1082554;54;19947;-80
2023/07/15 05:12:02;;;;;;;;;;;;;;;21.14;59.55;99245.69;1083893;54;19958;-80
2023/07/15 05:13:02;;;;;;;;;;;;;;;21.22;59.28;99239.06;1083497;39;20427;-80
2023/07/15 05:15:54;;;;;;;;;;;;;;;21.31;59.31;99243.94;1085350;54;19950;-82
2023/07/15 05:17:40;;;;;;;;;;;;;;;21.40;58.75;99241.69;1085890;47;19946;-84
2023/07/15 05:18:54;;;;;;;;;;;;;;;21.49;58.30;99239.47;1085759;47;19950;-83
2023/07/15 05:19:55;;;;;;;;;;;;;;;21.51;58.29;99232.72;1085953;47;19947;-83
2023/07/15 05:20:58;;;;;;;;;;;;;;;21.44;58.40;99228.47;1085459;47;19947;-79
2023/07/15 05:21:59;;;;;;;;;;;;;;;21.55;58.11;99227.63;1085011;54;19957;-80
2023/07/15 05:23:02;;;;;;;;;;;;;;;21.62;58.09;99228.38;1085309;47;19989;-81
2023/07/15 05:24:03;;;;;;;;;;;;;;;21.56;58.20;99223.84;1084639;39;20303;-81
2023/07/15 05:25:07;;;;;;;;;;;;;;;21.53;58.51;99237.94;1082786;47;19954;-81
2023/07/15 05:26:08;;;;;;;;;;;;;;;21.56;58.11;99239.34;1084708;54;19985;-81
2023/07/15 05:27:11;;;;;;;;;;;;;;;21.51;58.42;99229.19;1082970;54;19965;-79
2023/07/15 05:28:12;;;;;;;;;;;;;;;21.51;58.30;99232.72;1081435;54;19962;-81
2023/07/15 05:29:19;;;;;;;;;;;;;;;21.51;58.83;99231.91;1085706;54;19950;-81
2023/07/15 05:30:19;;;;;;;;;;;;;;;21.51;58.27;99237.34;1083249;47;19992;-80
2023/07/15 05:31:23;;;;;;;;;;;;;;;21.48;58.55;99225.06;1084135;39;20526;-81
2023/07/15 05:32:26;;;;;;;;;;;;;;;21.44;58.57;99231.19;1084171;47;19958;-82
2023/07/15 05:33:30;;;;;;;;;;;;;;;21.37;58.67;99228.59;1083239;54;19946;-80
2023/07/15 05:34:31;;;;;;;;;;;;;;;21.31;58.83;99221.34;1082511;54;20584;-80
2023/07/15 05:35:34;;;;;;;;;;;;;;;21.22;58.69;99229.06;1082779;54;19955;-81
2023/07/15 05:36:35;;;;;;;;;;;;;;;21.26;58.57;99230.22;1084817;47;19946;-81
2023/07/15 05:37:40;;;;;;;;;;;;;;;21.31;58.67;99238.50;1084390;47;19992;-82
2023/07/15 05:38:42;;;;;;;;;;;;;;;21.34;58.74;99232.63;1084687;47;19972;-81
2023/07/15 05:39:45;;;;;;;;;;;;;;;21.38;58.59;99232.13;1083303;54;20002;-81
2023/07/15 05:40:48;;;;;;;;;;;;;;;21.41;58.68;99231.66;1083340;54;19951;-81
2023/07/15 05:41:51;;;;;;;;;;;;;;;21.51;58.33;99229.19;1085411;54;20105;-81
2023/07/15 05:42:56;;;;;;;;;;;;;;;21.48;58.32;99232.38;1087354;39;20884;-81
2023/07/15 05:43:57;;;;;;;;;;;;;;;21.50;57.94;99233.78;1084660;47;19950;-80
2023/07/15 05:45:00;;;;;;;;;;;;;;;21.55;58.03;99224.91;1084502;47;19958;-80
2023/07/15 05:46:03;;;;;;;;;;;;;;;21.59;57.86;99228.00;1085985;54;19950;-80
2023/07/15 05:47:05;;;;;;;;;;;;;;;21.58;57.87;99227.19;1086423;39;20248;-80
2023/07/15 05:48:08;;;;;;;;;;;;;;;21.66;57.69;99224.13;1085351;47;20072;-80
2023/07/15 05:49:09;;;;;;;;;;;;;;;21.68;57.34;99225.78;1084562;54;19950;-79
2023/07/15 05:50:12;;;;;;;;;;;;;;;21.74;57.03;99228.38;1084608;54;19943;-80
2023/07/15 05:51:13;;;;;;;;;;;;;;;21.79;56.92;99220.31;1085305;54;19953;-80
2023/07/15 05:52:16;;;;;;;;;;;;;;;21.86;56.97;99227.53;1085048;54;19976;-80
2023/07/15 05:53:17;;;;;;;;;;;;;;;21.91;56.74;99224.91;1084482;47;19950;-81
2023/07/15 05:54:20;;;;;;;;;;;;;;;22.04;56.53;99223.81;1085865;39;20562;-79
2023/07/15 05:55:21;;;;;;;;;;;;;;;22.12;56.50;99224.28;1085574;47;19967;-80
2023/07/15 05:56:25;;;;;;;;;;;;;;;22.22;56.25;99214.66;1085037;47;20584;-79
2023/07/15 05:57:25;;;;;;;;;;;;;;;22.31;55.88;99218.66;1084792;47;20010;-80
2023/07/15 05:58:29;;;;;;;;;;;;;;;22.40;55.67;99221.81;1085043;54;20587;-80
2023/07/15 05:59:29;;;;;;;;;;;;;;;22.46;55.51;99223.59;1085679;39;20500;-79
2023/07/15 06:00:35;;;;;;;;;;;;;;;22.52;55.56;99229.97;1085196;47;20041;-80